Time;durP1;ratioP1;P1;durP2;ratioP2;P2;SDS_P1;SDS_P2;PMS_P1;PMS_P2;Temp;Humidity;BMP_temperature;BMP_pressure;BME280_temperature;BME280_humidity;BME280_pressure;Samples;Min_cycle;Max_cycle;Signal;HPM_P1;HPM_P2
2022/03/01 00:01:14;;;;;;;33.78;17.95;;;1.50;99.90;;;;;;5089156;28;20088;-71
2022/03/01 00:03:39;;;;;;;37.15;18.45;;;1.40;99.90;;;;;;5072241;28;20063;-71
2022/03/01 00:06:05;;;;;;;35.45;18.63;;;1.40;99.90;;;;;;5072280;28;20551;-72
2022/03/01 00:08:30;;;;;;;41.20;20.60;;;1.30;99.90;;;;;;5073437;28;20443;-71
2022/03/01 00:10:56;;;;;;;39.10;20.33;;;1.20;99.90;;;;;;5089023;28;20087;-71
2022/03/01 00:13:22;;;;;;;43.63;21.25;;;1.00;99.90;;;;;;5072124;28;20058;-71
2022/03/01 00:15:47;;;;;;;37.95;20.75;;;1.10;99.90;;;;;;5073168;28;20040;-72
2022/03/01 00:18:13;;;;;;;39.35;20.50;;;1.10;99.90;;;;;;5088909;28;20032;-71
2022/03/01 00:20:39;;;;;;;40.50;21.40;;;1.00;99.90;;;;;;5072045;28;20012;-72
2022/03/01 00:23:05;;;;;;;40.22;20.92;;;1.00;99.90;;;;;;5072012;28;20043;-71
2022/03/01 00:25:31;;;;;;;40.47;21.10;;;1.00;99.90;;;;;;5072039;28;20032;-71
2022/03/01 00:27:56;;;;;;;41.63;20.65;;;1.00;99.90;;;;;;5072033;28;20036;-71
2022/03/01 00:30:22;;;;;;;39.97;19.45;;;1.10;99.90;;;;;;5071745;28;20054;-70
2022/03/01 00:32:48;;;;;;;37.90;19.95;;;1.10;99.90;;;;;;5073218;28;20466;-72
2022/03/01 00:35:13;;;;;;;40.20;19.70;;;1.10;99.90;;;;;;5072860;28;20048;-71
2022/03/01 00:37:39;;;;;;;38.45;19.90;;;1.10;99.90;;;;;;5088675;28;20044;-71
2022/03/01 00:40:05;;;;;;;39.45;19.88;;;1.10;99.90;;;;;;5073098;28;20021;-71
2022/03/01 00:42:31;;;;;;;43.88;21.40;;;1.20;99.90;;;;;;5088595;28;20021;-71
2022/03/01 00:44:57;;;;;;;40.00;20.20;;;1.20;99.90;;;;;;5071786;28;20036;-71
2022/03/01 00:47:22;;;;;;;40.28;20.50;;;1.10;99.90;;;;;;5071857;28;20031;-71
2022/03/01 00:49:48;;;;;;;42.97;20.48;;;1.10;99.90;;;;;;5071790;28;20033;-72
2022/03/01 00:52:13;;;;;;;43.22;21.85;;;1.10;99.90;;;;;;5071876;28;20056;-71
2022/03/01 00:54:39;;;;;;;42.35;20.92;;;1.20;99.90;;;;;;5072856;28;20021;-71
2022/03/01 00:57:05;;;;;;;37.97;20.17;;;1.10;99.90;;;;;;5072967;28;20025;-71
2022/03/01 00:59:30;;;;;;;40.03;20.80;;;1.00;99.90;;;;;;5071708;28;20079;-71
2022/03/01 01:01:56;;;;;;;38.67;20.63;;;1.00;99.90;;;;;;5071712;28;20035;-71
2022/03/01 01:04:21;;;;;;;38.63;20.23;;;1.00;99.90;;;;;;5072933;28;20453;-71
2022/03/01 01:06:47;;;;;;;39.05;20.23;;;0.90;99.90;;;;;;5088359;28;20056;-70
2022/03/01 01:09:14;;;;;;;43.13;20.63;;;0.80;99.90;;;;;;5071599;28;20051;-71
2022/03/01 01:11:41;;;;;;;37.20;20.23;;;0.80;99.90;;;;;;5088395;28;20020;-71
2022/03/01 01:14:06;;;;;;;40.03;20.90;;;0.70;99.90;;;;;;5071554;28;20443;-71
2022/03/01 01:16:32;;;;;;;44.38;22.83;;;0.60;99.90;;;;;;5071518;28;20103;-71
2022/03/01 01:18:57;;;;;;;45.75;22.60;;;0.60;99.90;;;;;;5088236;28;20410;-71
2022/03/01 01:21:23;;;;;;;43.00;21.58;;;0.70;99.90;;;;;;5071481;28;20475;-71
2022/03/01 01:23:48;;;;;;;40.00;21.73;;;0.70;99.90;;;;;;5088170;28;20083;-72
2022/03/01 01:26:14;;;;;;;44.90;22.38;;;0.70;99.90;;;;;;5072641;28;20036;-71
2022/03/01 01:28:39;;;;;;;44.78;21.27;;;0.70;99.90;;;;;;5088210;28;20020;-71
2022/03/01 01:31:05;;;;;;;43.10;21.75;;;0.70;99.90;;;;;;5072555;28;20028;-71
2022/03/01 01:33:31;;;;;;;46.83;22.52;;;0.60;99.90;;;;;;5072574;28;20032;-70
2022/03/01 01:35:56;;;;;;;41.40;21.92;;;0.60;99.90;;;;;;5071179;28;20140;-71
2022/03/01 01:38:22;;;;;;;40.88;21.27;;;0.50;99.90;;;;;;5071246;28;20021;-71
2022/03/01 01:40:48;;;;;;;44.92;22.45;;;0.40;99.90;;;;;;5071412;28;20070;-71
2022/03/01 01:43:13;;;;;;;48.60;23.90;;;0.40;99.90;;;;;;5074857;28;20024;-71
2022/03/01 01:45:39;;;;;;;46.08;22.65;;;0.50;99.90;;;;;;5076102;28;20071;-71
2022/03/01 01:48:04;;;;;;;49.28;23.45;;;0.50;99.90;;;;;;5074802;28;20027;-71
2022/03/01 01:50:35;;;;;;;49.10;23.67;;;0.50;99.90;;;;;;5076029;28;20024;-71
2022/03/01 01:53:01;;;;;;;47.03;23.13;;;0.60;99.90;;;;;;5091524;28;20504;-71
2022/03/01 01:55:27;;;;;;;45.60;22.33;;;0.60;99.90;;;;;;5074679;28;20052;-71
2022/03/01 01:57:53;;;;;;;44.47;22.55;;;0.50;99.90;;;;;;5075929;28;20035;-71
2022/03/01 02:00:18;;;;;;;46.40;23.35;;;0.40;99.90;;;;;;5074553;28;20024;-72
2022/03/01 02:02:45;;;;;;;48.00;23.55;;;0.40;99.90;;;;;;5091397;28;20474;-71
2022/03/01 02:05:11;;;;;;;44.00;22.88;;;0.40;99.90;;;;;;5074545;28;20043;-71
2022/03/01 02:07:37;;;;;;;45.25;22.27;;;0.30;99.90;;;;;;5075709;28;20024;-71
2022/03/01 02:10:04;;;;;;;50.40;24.48;;;0.30;99.90;;;;;;5075669;28;20036;-71
2022/03/01 02:12:29;;;;;;;53.40;24.38;;;0.30;99.90;;;;;;5074491;28;20121;-71
2022/03/01 02:14:55;;;;;;;50.33;23.90;;;0.50;99.90;;;;;;5075538;28;20052;-71
2022/03/01 02:17:21;;;;;;;49.25;23.50;;;0.50;99.90;;;;;;5074419;28;20068;-71
2022/03/01 02:19:48;;;;;;;47.90;23.23;;;0.50;99.90;;;;;;5091083;28;20021;-71
2022/03/01 02:22:14;;;;;;;51.47;24.92;;;0.50;99.90;;;;;;5091098;28;20021;-70
2022/03/01 02:24:39;;;;;;;54.30;24.75;;;0.50;99.90;;;;;;5074099;28;20062;-71
2022/03/01 02:27:05;;;;;;;48.53;24.27;;;0.60;99.90;;;;;;5074137;28;20489;-71
2022/03/01 02:29:32;;;;;;;55.50;24.20;;;0.60;99.90;;;;;;5074056;28;20513;-71
2022/03/01 02:32:07;;;;;;;47.97;23.88;;;0.70;99.90;;;;;;5074093;28;20032;-70
2022/03/01 02:34:34;;;;;;;52.15;24.10;;;0.60;99.90;;;;;;5073826;28;20055;-70
2022/03/01 02:37:00;;;;;;;47.72;22.80;;;0.50;99.90;;;;;;5075280;28;20062;-71
2022/03/01 02:39:25;;;;;;;51.63;24.20;;;0.40;99.90;;;;;;5090729;28;20107;-71
2022/03/01 02:41:51;;;;;;;50.67;24.20;;;0.40;99.90;;;;;;5075104;28;20048;-71
2022/03/01 02:44:17;;;;;;;51.15;23.35;;;0.40;99.90;;;;;;5073843;28;20025;-71
2022/03/01 02:46:42;;;;;;;50.40;23.60;;;0.40;99.90;;;;;;5090510;28;20093;-70
2022/03/01 02:49:09;;;;;;;49.88;23.52;;;0.40;99.90;;;;;;5073709;28;20016;-71
2022/03/01 02:51:35;;;;;;;49.45;23.77;;;0.40;99.90;;;;;;5074885;28;20029;-71
2022/03/01 02:54:02;;;;;;;51.05;23.83;;;0.40;99.90;;;;;;5073668;28;20045;-70
2022/03/01 02:56:27;;;;;;;46.95;22.45;;;0.30;99.90;;;;;;5090262;28;20029;-71
2022/03/01 02:58:55;;;;;;;46.28;23.20;;;0.20;99.90;;;;;;5073554;28;20040;-70
2022/03/01 03:01:22;;;;;;;48.88;22.95;;;0.20;99.90;;;;;;5074751;28;20535;-71
2022/03/01 03:03:48;;;;;;;53.70;24.38;;;0.10;99.90;;;;;;5074696;28;20040;-71
2022/03/01 03:06:14;;;;;;;50.45;23.33;;;0.10;99.90;;;;;;5074557;28;20028;-71
2022/03/01 03:08:39;;;;;;;54.22;24.77;;;0.00;99.90;;;;;;5073329;28;20095;-71
2022/03/01 03:11:05;;;;;;;57.55;24.98;;;0.00;99.90;;;;;;5073277;28;20470;-71
2022/03/01 03:13:31;;;;;;;53.20;25.13;;;0.10;99.90;;;;;;5074552;28;20113;-70
2022/03/01 03:15:56;;;;;;;51.83;24.95;;;0.20;99.90;;;;;;5073147;28;20036;-72
2022/03/01 03:18:22;;;;;;;56.63;25.48;;;0.30;99.90;;;;;;5074367;28;20029;-71
2022/03/01 03:20:47;;;;;;;54.28;24.38;;;0.20;99.90;;;;;;5073168;28;20039;-71
2022/03/01 03:23:13;;;;;;;52.42;23.63;;;0.20;99.90;;;;;;5074192;28;20025;-71
2022/03/01 03:25:38;;;;;;;55.97;23.75;;;0.20;99.90;;;;;;5074149;28;20036;-71
2022/03/01 03:28:04;;;;;;;55.30;25.73;;;0.20;99.90;;;;;;5089719;28;20474;-71
2022/03/01 03:30:30;;;;;;;57.03;24.67;;;0.10;99.90;;;;;;5074105;28;20043;-71
2022/03/01 03:32:56;;;;;;;57.33;24.83;;;0.10;99.90;;;;;;5072874;28;20035;-71
2022/03/01 03:35:21;;;;;;;45.47;22.40;;;0.00;99.90;;;;;;5072571;28;20581;-70
2022/03/01 03:37:47;;;;;;;56.17;23.98;;;0.00;99.90;;;;;;5089536;28;20505;-70
2022/03/01 03:40:13;;;;;;;49.75;24.58;;;0.00;99.90;;;;;;5073911;28;20017;-71
2022/03/01 03:42:39;;;;;;;51.33;23.63;;;0.00;99.90;;;;;;5072576;28;20071;-71
2022/03/01 03:45:06;;;;;;;48.72;23.35;;;-0.10;99.90;;;;;;5072641;28;20494;-71
2022/03/01 03:47:31;;;;;;;47.63;23.92;;;-0.10;99.90;;;;;;5089346;28;20081;-71
2022/03/01 03:49:57;;;;;;;49.45;23.25;;;-0.20;99.90;;;;;;5072509;28;20036;-71
2022/03/01 03:52:23;;;;;;;51.08;23.60;;;-0.20;99.90;;;;;;5072468;28;20021;-71
2022/03/01 03:54:50;;;;;;;46.28;22.08;;;-0.20;99.90;;;;;;5072430;28;20040;-70
2022/03/01 03:57:15;;;;;;;44.42;22.02;;;-0.30;99.90;;;;;;5072568;28;20112;-71
2022/03/01 03:59:41;;;;;;;51.70;23.55;;;-0.30;99.90;;;;;;5073530;28;20058;-71
2022/03/01 04:02:07;;;;;;;58.15;24.27;;;-0.20;99.90;;;;;;5073579;28;20023;-70
2022/03/01 04:04:33;;;;;;;52.17;23.98;;;-0.10;99.90;;;;;;5072064;28;20487;-70
2022/03/01 04:06:59;;;;;;;48.78;22.83;;;-0.10;99.90;;;;;;5088866;28;20031;-70
2022/03/01 04:09:25;;;;;;;47.58;22.75;;;0.00;99.90;;;;;;5072298;28;20502;-71
2022/03/01 04:11:51;;;;;;;49.63;22.88;;;0.00;99.90;;;;;;5072202;28;20027;-70
2022/03/01 04:14:18;;;;;;;49.22;23.38;;;-0.10;99.90;;;;;;5073417;28;20020;-70
2022/03/01 04:16:44;;;;;;;50.25;23.55;;;-0.10;99.90;;;;;;5072132;28;20027;-70
2022/03/01 04:19:10;;;;;;;47.20;22.88;;;0.00;99.90;;;;;;5088890;28;20024;-70
2022/03/01 04:21:37;;;;;;;55.45;23.98;;;0.00;99.90;;;;;;5072099;28;20055;-71
2022/03/01 04:24:03;;;;;;;47.90;21.80;;;-0.10;99.90;;;;;;5073318;28;20029;-70
2022/03/01 04:26:29;;;;;;;52.63;23.92;;;-0.10;99.90;;;;;;5072106;28;20029;-71
2022/03/01 04:28:54;;;;;;;50.97;24.05;;;-0.10;99.90;;;;;;5071908;28;20075;-71
2022/03/01 04:31:20;;;;;;;52.00;23.35;;;-0.10;99.90;;;;;;5088785;28;20066;-71
2022/03/01 04:33:46;;;;;;;53.03;23.58;;;-0.10;99.90;;;;;;5073306;28;20027;-70
2022/03/01 04:36:13;;;;;;;50.83;23.92;;;-0.10;99.90;;;;;;5071707;28;20044;-70
2022/03/01 04:38:38;;;;;;;49.22;23.77;;;-0.10;99.90;;;;;;5071822;28;20470;-70
2022/03/01 04:41:04;;;;;;;50.17;22.48;;;-0.20;99.90;;;;;;5073125;28;20029;-70
2022/03/01 04:43:29;;;;;;;55.78;24.13;;;-0.20;99.90;;;;;;5088579;28;20127;-71
2022/03/01 04:45:56;;;;;;;50.17;23.52;;;-0.10;99.90;;;;;;5072979;28;20051;-71
2022/03/01 04:48:22;;;;;;;53.17;25.40;;;-0.20;99.90;;;;;;5073114;28;20023;-71
2022/03/01 04:50:47;;;;;;;52.83;24.70;;;-0.20;99.90;;;;;;5073106;28;20478;-70
2022/03/01 04:53:13;;;;;;;46.38;22.40;;;-0.20;99.90;;;;;;5088566;28;20425;-71
2022/03/01 04:55:39;;;;;;;52.33;23.88;;;-0.20;99.90;;;;;;5071710;28;20032;-70
2022/03/01 04:58:04;;;;;;;55.63;25.15;;;-0.20;99.90;;;;;;5071654;28;20071;-71
2022/03/01 05:00:30;;;;;;;54.33;24.15;;;-0.10;99.90;;;;;;5072950;28;20052;-71
2022/03/01 05:02:55;;;;;;;60.33;24.63;;;-0.10;99.90;;;;;;5071873;28;20406;-71
2022/03/01 05:05:21;;;;;;;52.88;22.75;;;-0.10;99.90;;;;;;5072913;28;20367;-71
2022/03/01 05:07:48;;;;;;;53.55;23.83;;;-0.10;99.90;;;;;;5088391;28;20486;-71
2022/03/01 05:10:17;;;;;;;55.90;25.17;;;-0.20;99.90;;;;;;5088348;28;20479;-71
2022/03/01 05:12:49;;;;;;;55.45;24.75;;;-0.20;99.90;;;;;;5072778;28;20025;-71
2022/03/01 05:15:17;;;;;;;57.03;25.02;;;-0.20;99.90;;;;;;5088247;28;20547;-71
2022/03/01 05:17:43;;;;;;;53.78;24.73;;;-0.20;99.90;;;;;;5089935;28;20390;-71
2022/03/01 05:20:10;;;;;;;51.95;23.50;;;-0.20;99.90;;;;;;5076579;28;20065;-71
2022/03/01 05:22:37;;;;;;;52.92;24.35;;;-0.30;99.90;;;;;;5075372;28;20486;-71
2022/03/01 05:25:04;;;;;;;49.80;22.48;;;-0.30;99.90;;;;;;5092108;28;20120;-70
2022/03/01 05:27:30;;;;;;;51.25;21.88;;;-0.40;99.90;;;;;;5092055;28;20457;-71
2022/03/01 05:29:56;;;;;;;55.90;23.00;;;-0.50;99.90;;;;;;5075062;28;20059;-71
2022/03/01 05:32:21;;;;;;;49.67;23.15;;;-0.50;99.90;;;;;;5075186;28;20056;-71
2022/03/01 05:34:47;;;;;;;47.42;23.42;;;-0.50;99.90;;;;;;5074714;28;20131;-71
2022/03/01 05:37:13;;;;;;;51.42;23.02;;;-0.50;99.90;;;;;;5076132;28;20028;-71
2022/03/01 05:39:38;;;;;;;49.38;23.48;;;-0.60;99.90;;;;;;5076159;28;20099;-71
2022/03/01 05:42:05;;;;;;;55.75;23.15;;;-0.60;99.90;;;;;;5076148;28;20039;-71
2022/03/01 05:44:30;;;;;;;55.22;23.75;;;-0.60;99.90;;;;;;5091761;28;20032;-70
2022/03/01 05:46:56;;;;;;;53.40;23.70;;;-0.60;99.90;;;;;;5076102;28;20021;-71
2022/03/01 05:49:22;;;;;;;52.72;22.38;;;-0.60;99.90;;;;;;5076071;28;20040;-72
2022/03/01 05:51:47;;;;;;;50.75;22.55;;;-0.60;99.90;;;;;;5074689;28;20079;-70
2022/03/01 05:54:13;;;;;;;49.10;23.45;;;-0.70;99.90;;;;;;5075963;28;20016;-71
2022/03/01 05:56:39;;;;;;;57.30;24.77;;;-0.70;99.90;;;;;;5075889;28;20029;-70
2022/03/01 05:59:04;;;;;;;51.97;25.13;;;-0.70;99.90;;;;;;5074664;28;20070;-71
2022/03/01 06:01:30;;;;;;;48.70;22.77;;;-0.70;99.90;;;;;;5075888;28;20439;-71
2022/03/01 06:03:56;;;;;;;50.92;24.15;;;-0.60;99.90;;;;;;5075711;28;20020;-71
2022/03/01 06:06:21;;;;;;;53.15;24.38;;;-0.60;99.90;;;;;;5074520;28;20025;-70
2022/03/01 06:08:47;;;;;;;51.97;24.30;;;-0.50;99.90;;;;;;5074239;28;20029;-70
2022/03/01 06:11:12;;;;;;;53.65;24.50;;;-0.40;99.90;;;;;;5075579;28;20021;-70
2022/03/01 06:13:38;;;;;;;54.55;24.23;;;-0.30;99.90;;;;;;5074356;28;20020;-71
2022/03/01 06:16:04;;;;;;;57.15;24.73;;;-0.20;99.90;;;;;;5091138;28;20029;-70
2022/03/01 06:18:30;;;;;;;56.78;25.15;;;-0.10;99.90;;;;;;5074368;28;20024;-70
2022/03/01 06:20:56;;;;;;;56.85;24.92;;;-0.10;99.90;;;;;;5075442;28;20489;-70
2022/03/01 06:23:22;;;;;;;51.60;23.80;;;0.00;99.90;;;;;;5075422;28;20028;-72
2022/03/01 06:25:47;;;;;;;44.83;22.67;;;0.10;99.90;;;;;;5075392;28;20035;-70
2022/03/01 06:28:13;;;;;;;45.85;21.85;;;0.20;99.90;;;;;;5073808;28;20016;-70
2022/03/01 06:30:39;;;;;;;51.47;23.05;;;0.40;99.90;;;;;;5075289;28;20390;-71
2022/03/01 06:33:04;;;;;;;48.47;20.85;;;0.50;99.90;;;;;;5075296;28;20087;-71
2022/03/01 06:35:30;;;;;;;45.20;21.52;;;0.80;99.90;;;;;;5073777;28;20052;-71
2022/03/01 06:37:56;;;;;;;42.95;21.58;;;1.10;99.90;;;;;;5075186;28;20035;-70
2022/03/01 06:40:22;;;;;;;45.72;21.45;;;1.60;99.90;;;;;;5090827;28;20032;-70
2022/03/01 06:42:48;;;;;;;40.13;20.75;;;2.10;99.90;;;;;;5075068;28;20379;-71
2022/03/01 06:45:14;;;;;;;40.97;20.20;;;2.30;99.90;;;;;;5090452;28;20029;-71
2022/03/01 06:47:39;;;;;;;45.33;20.88;;;2.30;99.90;;;;;;5074828;28;20115;-71
2022/03/01 06:50:06;;;;;;;41.05;20.38;;;2.70;99.90;;;;;;5073393;28;20396;-71
2022/03/01 06:52:34;;;;;;;40.35;19.17;;;3.50;99.90;;;;;;5074154;28;20474;-71
2022/03/01 06:55:01;;;;;;;40.08;18.35;;;4.10;99.90;;;;;;5074620;28;20021;-71
2022/03/01 06:57:27;;;;;;;33.72;18.55;;;4.50;99.90;;;;;;5090341;28;20028;-71
2022/03/01 06:59:53;;;;;;;37.35;18.73;;;5.20;99.90;;;;;;5074532;28;20099;-72
2022/03/01 07:02:19;;;;;;;35.72;19.02;;;5.60;99.90;;;;;;5073440;28;20372;-71
2022/03/01 07:04:45;;;;;;;37.17;19.40;;;6.00;99.90;;;;;;5073077;28;20395;-71
2022/03/01 07:07:10;;;;;;;35.53;19.08;;;6.40;99.90;;;;;;5073007;28;20025;-71
2022/03/01 07:09:36;;;;;;;30.73;17.88;;;6.90;99.90;;;;;;5084965;28;20020;-71
2022/03/01 07:12:02;;;;;;;34.53;18.38;;;7.80;99.90;;;;;;5072486;28;20027;-71
2022/03/01 07:14:27;;;;;;;32.38;18.85;;;8.80;99.90;;;;;;5067404;28;20028;-72
2022/03/01 07:16:53;;;;;;;32.95;19.67;;;9.40;99.90;;;;;;5093999;28;20036;-74
2022/03/01 07:19:18;;;;;;;36.83;20.88;;;10.00;99.90;;;;;;5094330;28;20024;-71
2022/03/01 07:21:44;;;;;;;39.13;19.88;;;10.80;98.00;;;;;;5094429;28;20107;-71
2022/03/01 07:24:10;;;;;;;104.60;22.55;;;11.40;95.40;;;;;;5092572;28;20053;-71
2022/03/01 07:26:36;;;;;;;73.57;19.95;;;10.80;92.10;;;;;;5092837;28;20028;-71
2022/03/01 07:29:02;;;;;;;37.72;16.83;;;10.30;92.00;;;;;;5094148;28;20473;-71
2022/03/01 07:31:28;;;;;;;30.52;15.93;;;10.00;93.20;;;;;;5076072;28;20020;-71
2022/03/01 07:33:54;;;;;;;27.38;14.93;;;10.40;92.40;;;;;;5093794;28;20528;-72
2022/03/01 07:36:19;;;;;;;25.63;15.65;;;10.20;91.80;;;;;;5092594;28;20089;-71
2022/03/01 07:38:45;;;;;;;31.65;16.08;;;9.50;91.30;;;;;;5092552;28;20039;-71
2022/03/01 07:41:10;;;;;;;28.90;15.50;;;8.20;94.50;;;;;;5093014;28;20036;-75
2022/03/01 07:43:36;;;;;;;33.03;16.20;;;7.40;99.60;;;;;;5092561;28;20020;-73
2022/03/01 07:46:03;;;;;;;30.02;15.45;;;7.20;99.90;;;;;;5093087;28;20035;-73
2022/03/01 07:48:28;;;;;;;29.05;16.10;;;7.60;99.90;;;;;;5090721;28;20330;-72
2022/03/01 07:50:54;;;;;;;32.03;16.70;;;7.70;99.90;;;;;;5093086;28;20032;-72
2022/03/01 07:53:20;;;;;;;34.13;15.85;;;7.30;99.90;;;;;;5074986;28;20020;-73
2022/03/01 07:55:45;;;;;;;26.55;14.70;;;7.20;99.90;;;;;;5092945;28;20024;-72
2022/03/01 07:58:11;;;;;;;25.75;14.77;;;7.50;99.90;;;;;;5092037;28;20024;-73
2022/03/01 08:00:37;;;;;;;23.60;13.07;;;9.10;99.30;;;;;;5093272;28;20046;-73
2022/03/01 08:03:03;;;;;;;26.88;14.18;;;10.40;91.20;;;;;;5091791;28;20024;-73
2022/03/01 08:05:28;;;;;;;22.95;14.13;;;11.50;86.90;;;;;;5092084;28;20024;-74
2022/03/01 08:07:56;;;;;;;27.48;15.02;;;11.10;78.00;;;;;;5091710;28;20054;-73
2022/03/01 08:10:22;;;;;;;27.92;14.45;;;10.30;81.40;;;;;;5109489;28;20477;-72
2022/03/01 08:12:47;;;;;;;25.83;13.73;;;8.90;86.40;;;;;;5092099;28;20031;-72
2022/03/01 08:15:13;;;;;;;23.90;14.02;;;8.40;91.20;;;;;;5093431;28;20023;-73
2022/03/01 08:17:47;;;;;;;23.52;13.75;;;7.70;92.50;;;;;;5092694;28;20030;-74
2022/03/01 08:20:13;;;;;;;26.33;13.88;;;7.20;95.20;;;;;;5091876;28;20165;-74
2022/03/01 08:22:40;;;;;;;26.77;13.25;;;7.00;98.30;;;;;;5091751;28;20038;-72
2022/03/01 08:25:06;;;;;;;27.15;13.48;;;7.10;98.90;;;;;;5092964;28;20107;-72
2022/03/01 08:27:32;;;;;;;26.17;13.93;;;7.50;97.30;;;;;;5074879;28;20020;-72
2022/03/01 08:29:57;;;;;;;27.63;14.25;;;7.60;96.90;;;;;;5074978;28;20035;-72
2022/03/01 08:32:23;;;;;;;33.72;14.70;;;7.50;96.80;;;;;;5091483;28;20020;-73
2022/03/01 08:34:48;;;;;;;28.42;14.35;;;7.50;96.90;;;;;;5091482;28;20055;-71
2022/03/01 08:37:14;;;;;;;28.10;14.30;;;7.40;96.50;;;;;;5091842;28;20024;-72
2022/03/01 08:39:39;;;;;;;26.92;14.00;;;7.30;96.20;;;;;;5091451;28;20020;-71
2022/03/01 08:42:05;;;;;;;27.50;14.13;;;7.30;97.30;;;;;;5091655;28;20123;-72
2022/03/01 08:44:30;;;;;;;32.08;13.27;;;7.70;97.20;;;;;;5074727;28;20487;-71
2022/03/01 08:46:56;;;;;;;24.10;13.60;;;7.90;95.40;;;;;;5092937;28;20115;-72
2022/03/01 08:49:21;;;;;;;28.85;13.65;;;8.30;94.20;;;;;;5095678;28;20385;-72
2022/03/01 08:51:47;;;;;;;25.90;13.55;;;8.70;94.40;;;;;;5092558;28;20024;-72
2022/03/01 08:54:12;;;;;;;24.20;13.57;;;9.50;91.10;;;;;;5096851;28;20059;-72
2022/03/01 08:56:38;;;;;;;28.83;13.52;;;10.10;88.00;;;;;;5095565;28;20028;-73
2022/03/01 08:59:05;;;;;;;25.35;13.00;;;10.90;82.10;;;;;;5096217;28;20431;-73
2022/03/01 09:01:31;;;;;;;21.38;13.32;;;11.80;78.30;;;;;;5096570;28;20055;-73
2022/03/01 09:03:59;;;;;;;23.05;13.52;;;11.50;71.20;;;;;;5079857;28;20039;-74
2022/03/01 09:06:25;;;;;;;24.70;13.57;;;11.80;70.60;;;;;;5095059;28;20024;-73
2022/03/01 09:08:50;;;;;;;21.77;13.20;;;11.20;72.00;;;;;;5096733;28;20028;-73
2022/03/01 09:11:16;;;;;;;25.60;14.05;;;11.20;73.10;;;;;;5078793;28;20539;-72
2022/03/01 09:13:41;;;;;;;22.63;13.65;;;11.20;71.30;;;;;;5096529;28;20474;-74
2022/03/01 09:16:07;;;;;;;24.77;13.65;;;11.60;71.30;;;;;;5095434;28;20028;-73
2022/03/01 09:18:34;;;;;;;23.35;14.30;;;11.50;71.90;;;;;;5096705;28;20024;-73
2022/03/01 09:21:00;;;;;;;32.97;14.25;;;11.20;71.50;;;;;;5096442;28;20021;-73
2022/03/01 09:23:26;;;;;;;25.25;13.95;;;11.10;72.30;;;;;;5096659;28;20028;-73
2022/03/01 09:25:51;;;;;;;26.02;14.20;;;11.70;69.40;;;;;;5095496;28;20032;-72
2022/03/01 09:28:17;;;;;;;23.45;14.23;;;11.80;69.10;;;;;;5078639;28;20043;-73
2022/03/01 09:30:43;;;;;;;25.90;13.77;;;12.20;67.80;;;;;;5074508;28;20116;-73
2022/03/01 09:33:08;;;;;;;22.30;14.77;;;11.70;67.30;;;;;;5079632;28;20028;-72
2022/03/01 09:35:34;;;;;;;23.83;13.75;;;11.90;67.50;;;;;;5095722;28;20080;-71
2022/03/01 09:38:00;;;;;;;25.10;14.38;;;12.10;70.40;;;;;;5094895;28;20032;-72
2022/03/01 09:40:26;;;;;;;23.98;14.27;;;12.50;66.70;;;;;;5078180;28;20503;-72
2022/03/01 09:42:52;;;;;;;24.20;14.40;;;13.10;64.00;;;;;;5094957;28;20031;-74
2022/03/01 09:45:19;;;;;;;21.85;14.13;;;12.60;66.30;;;;;;5093620;28;20198;-73
2022/03/01 09:47:44;;;;;;;22.05;14.35;;;12.90;64.20;;;;;;5094198;28;20031;-73
2022/03/01 09:50:11;;;;;;;27.35;14.75;;;12.50;63.70;;;;;;5095888;28;20020;-73
2022/03/01 09:52:38;;;;;;;24.58;14.00;;;12.90;66.70;;;;;;5095606;28;20049;-73
2022/03/01 09:55:06;;;;;;;24.70;15.15;;;12.90;63.30;;;;;;5094690;28;20481;-73
2022/03/01 09:57:31;;;;;;;21.05;13.52;;;12.90;63.00;;;;;;5094298;28;20082;-73
2022/03/01 09:59:57;;;;;;;24.85;14.65;;;13.20;64.80;;;;;;5087227;28;20028;-73
2022/03/01 10:02:41;;;;;;;23.02;14.93;;;13.40;60.50;;;;;;5095246;28;20032;-73
2022/03/01 10:05:08;;;;;;;24.95;14.73;;;13.50;60.80;;;;;;5094590;28;20470;-74
2022/03/01 10:07:34;;;;;;;22.92;14.40;;;13.50;59.50;;;;;;5074429;28;20032;-73
2022/03/01 10:10:06;;;;;;;22.15;14.00;;;13.00;62.80;;;;;;5096124;28;20359;-73
2022/03/01 10:12:32;;;;;;;23.07;13.97;;;12.70;62.40;;;;;;5096301;28;20024;-73
2022/03/01 10:15:03;;;;;;;21.10;14.20;;;12.50;65.20;;;;;;5095593;28;20367;-73
2022/03/01 10:17:34;;;;;;;22.85;13.88;;;12.20;63.70;;;;;;5094361;28;20363;-74
2022/03/01 10:20:03;;;;;;;22.83;14.32;;;11.50;65.10;;;;;;5094001;28;20028;-74
2022/03/01 10:22:28;;;;;;;25.08;14.68;;;11.40;66.50;;;;;;5095182;28;20020;-73
2022/03/01 10:24:54;;;;;;;33.70;13.80;;;11.10;66.00;;;;;;5077000;28;20027;-72
2022/03/01 10:27:28;;;;;;;26.60;15.05;;;10.60;69.40;;;;;;5093993;28;20107;-73
2022/03/01 10:29:54;;;;;;;26.27;14.80;;;10.70;73.90;;;;;;5078111;28;20103;-71
2022/03/01 10:32:19;;;;;;;28.92;14.05;;;10.50;73.40;;;;;;5095747;28;20100;-72
2022/03/01 10:35:06;;;;;;;23.42;14.23;;;10.80;72.50;;;;;;5111021;28;20044;-72
2022/03/01 10:37:35;;;;;;;30.63;13.82;;;10.90;74.40;;;;;;5099390;28;20408;-72
2022/03/01 10:40:22;;;;;;;26.02;13.90;;;11.30;71.50;;;;;;5070586;28;20364;-72
2022/03/01 10:43:09;;;;;;;23.73;13.40;;;11.50;71.00;;;;;;5073538;28;20397;-72
2022/03/01 10:45:40;;;;;;;23.02;12.73;;;11.70;67.60;;;;;;5094677;28;20027;-73
2022/03/01 10:48:10;;;;;;;25.05;13.18;;;12.20;66.20;;;;;;5094357;28;20536;-72
2022/03/01 10:50:37;;;;;;;24.58;12.40;;;12.60;65.70;;;;;;5094018;28;20069;-73
2022/03/01 10:53:03;;;;;;;20.40;12.95;;;13.10;60.80;;;;;;5094529;28;20020;-73
2022/03/01 10:55:32;;;;;;;22.50;13.07;;;12.90;57.90;;;;;;5077235;28;20066;-72
2022/03/01 10:58:05;;;;;;;23.15;12.75;;;12.80;59.50;;;;;;5094053;28;20440;-73
2022/03/01 11:00:33;;;;;;;20.63;12.25;;;12.40;59.30;;;;;;5076903;28;20433;-73
2022/03/01 11:02:59;;;;;;;20.98;12.68;;;12.50;59.30;;;;;;5094738;28;20044;-73
2022/03/01 11:05:28;;;;;;;21.02;12.98;;;12.80;59.10;;;;;;5094485;28;20446;-74
2022/03/01 11:07:54;;;;;;;22.00;12.55;;;13.10;57.90;;;;;;5092957;28;20020;-73
2022/03/01 11:10:22;;;;;;;18.98;12.48;;;13.50;57.80;;;;;;5073182;28;20027;-71
2022/03/01 11:12:52;;;;;;;21.40;12.40;;;13.60;58.80;;;;;;5094453;28;20023;-72
2022/03/01 11:15:29;;;;;;;20.60;12.18;;;13.70;56.40;;;;;;5074407;28;20031;-73
2022/03/01 11:18:23;;;;;;;21.15;12.38;;;13.80;54.60;;;;;;5093917;28;20024;-73
2022/03/01 11:20:49;;;;;;;22.88;12.90;;;12.90;56.30;;;;;;5092183;28;20032;-72
2022/03/01 11:23:21;;;;;;;20.25;12.63;;;12.50;57.60;;;;;;5093365;28;20102;-73
2022/03/01 11:25:47;;;;;;;21.38;11.82;;;12.20;57.10;;;;;;5093800;28;20083;-73
2022/03/01 11:28:14;;;;;;;21.67;12.50;;;12.70;57.50;;;;;;5093908;28;20056;-72
2022/03/01 11:30:43;;;;;;;20.65;13.05;;;12.80;58.20;;;;;;5093842;28;20081;-73
2022/03/01 11:33:09;;;;;;;20.85;12.70;;;12.90;56.50;;;;;;5092517;28;20432;-73
2022/03/01 11:35:41;;;;;;;22.10;12.25;;;12.80;56.80;;;;;;5091357;28;20586;-73
2022/03/01 11:38:09;;;;;;;19.50;11.13;;;12.90;56.90;;;;;;5074289;28;20059;-73
2022/03/01 11:40:38;;;;;;;23.25;12.80;;;12.90;57.20;;;;;;5091183;28;20243;-73
2022/03/01 11:43:15;;;;;;;21.92;11.93;;;12.60;57.90;;;;;;5090945;28;20474;-74
2022/03/01 11:45:48;;;;;;;23.08;13.15;;;12.20;57.00;;;;;;5091736;28;20394;-74
2022/03/01 11:48:16;;;;;;;20.58;13.05;;;12.10;57.60;;;;;;5090878;28;20435;-74
2022/03/01 11:50:45;;;;;;;26.23;13.30;;;12.40;57.40;;;;;;5093052;28;20016;-73
2022/03/01 11:53:14;;;;;;;22.25;12.73;;;12.00;57.30;;;;;;5093918;28;20461;-73
2022/03/01 11:55:44;;;;;;;20.45;12.70;;;11.90;60.10;;;;;;5075578;28;20032;-73
2022/03/01 11:58:11;;;;;;;20.33;13.48;;;11.90;60.00;;;;;;5075288;28;20066;-73
2022/03/01 12:00:39;;;;;;;23.65;13.32;;;12.00;59.90;;;;;;5092280;28;20381;-73
2022/03/01 12:03:10;;;;;;;23.23;13.10;;;12.00;58.70;;;;;;5093627;28;20016;-73
2022/03/01 12:05:37;;;;;;;22.63;11.95;;;12.10;59.10;;;;;;5105298;27;20482;-73
2022/03/01 12:08:06;;;;;;;22.17;12.77;;;12.00;58.00;;;;;;5075365;28;20062;-73
2022/03/01 12:10:32;;;;;;;21.45;12.55;;;12.10;59.30;;;;;;5095249;28;20131;-73
2022/03/01 12:12:57;;;;;;;23.65;12.20;;;12.00;59.20;;;;;;5080267;28;20443;-73
2022/03/01 12:15:30;;;;;;;21.60;12.93;;;12.00;58.80;;;;;;5091634;28;20127;-73
2022/03/01 12:17:57;;;;;;;25.00;13.98;;;11.80;58.70;;;;;;5091973;28;20093;-73
2022/03/01 12:20:23;;;;;;;22.23;13.30;;;12.00;58.80;;;;;;5109210;28;20393;-73
2022/03/01 12:22:52;;;;;;;24.25;13.00;;;12.20;58.70;;;;;;5093134;28;20032;-73
2022/03/01 12:25:18;;;;;;;26.10;13.38;;;12.10;58.50;;;;;;5091928;28;20028;-73
2022/03/01 12:27:44;;;;;;;23.17;13.90;;;12.50;57.30;;;;;;5074764;28;20020;-72